Moose 62 — CGCZ — position and weather

sailwx.info

Track history (hours):
 
Tides and Currents Weather Stations Pressure Air Temp Water Temp Dewpoint Dewpoint Depression Visibility Wind Speed Wind Dir Waves Ship Positions

Moose 62

Last reported at 2014-Sep-13 08:33 UTC. Time now 2014-Sep-15 09:29 UTC.
Position N 49°17' W 123°06'.

; draft 2.6 m.

Type: Military. MMSI: 316013412.

Date/timePositionNaut miles runAvg speedWind from/ knotsBaromVisibWave heightAir tempDewpointWater temp
2014-Sep-13 08:33N 49°17' W 123°06'0 0.0
2014-Sep-13 07:33N 49°17' W 123°06'0 0.0
2014-Sep-13 06:33N 49°17' W 123°06'0 0.0
2014-Sep-13 05:33N 49°17' W 123°06'0 0.0
2014-Sep-13 04:33N 49°17' W 123°06'0 0.0
2014-Sep-13 03:33N 49°17' W 123°06'0 0.0
2014-Sep-13 02:33N 49°17' W 123°06'0 0.0
2014-Sep-13 01:33N 49°17' W 123°06'0 0.0
2014-Sep-13 00:33N 49°17' W 123°06'0 0.0
2014-Sep-12 23:33N 49°17' W 123°06'0 0.0
2014-Sep-12 22:33N 49°17' W 123°06'0 0.0
2014-Sep-12 21:33N 49°17' W 123°06'9 9.2
2014-Sep-12 20:33N 49°19' W 123°20'1211.9
2014-Sep-12 19:33N 49°21' W 123°38'1414.0
2014-Sep-12 18:33N 49°26' W 123°58'1515.2
2014-Sep-12 17:33N 49°38' W 124°12'10 9.8
2014-Sep-12 16:34N 49°47' W 124°06'0 0.4
2014-Sep-12 15:33N 49°47' W 124°07'1010.4
2014-Sep-12 14:33N 49°44' W 124°22'1010.0
2014-Sep-12 13:32N 49°50' W 124°35'9 8.9
2014-Sep-12 12:33N 49°54' W 124°47'6 6.1
2014-Sep-12 11:33N 49°48' W 124°48'9 9.5
2014-Sep-12 10:33N 49°41' W 124°39'1211.6
2014-Sep-12 09:33N 49°31' W 124°30'1010.2
2014-Sep-12 08:33N 49°25' W 124°16'1111.3
2014-Sep-12 07:33N 49°22' W 123°60'1110.6
2014-Sep-12 06:34N 49°20' W 123°44'10 9.9
2014-Sep-12 05:33N 49°19' W 123°28'1010.2
2014-Sep-12 04:34N 49°19' W 123°13'4 4.1
2014-Sep-12 03:34N 49°18' W 123°07'0 0.0
2014-Sep-12 02:34N 49°18' W 123°07'0 0.0
2014-Sep-12 01:34N 49°18' W 123°07'7 7.0
2014-Sep-12 00:34N 49°18' W 123°18'6 5.8
2014-Sep-11 23:33N 49°15' W 123°24'4 3.7
2014-Sep-11 22:33N 49°18' W 123°24'1 1.3
2014-Sep-11 21:34N 49°19' W 123°24'7 6.6
2014-Sep-11 20:33N 49°25' W 123°18'6 5.7
2014-Sep-11 19:33N 49°23' W 123°26'6 5.9
2014-Sep-11 18:33N 49°26' W 123°19'8 7.9
2014-Sep-11 17:33N 49°34' W 123°17'4 3.6
2014-Sep-11 16:34N 49°30' W 123°17'8 8.3
2014-Sep-11 15:33N 49°22' W 123°18'38 4.5
2014-Sep-11 07:08N 49°25' W 124°16'711.5
2014-Sep-11 06:33N 49°23' W 124°06'1312.6
2014-Sep-11 05:33N 49°20' W 123°47'1312.7
2014-Sep-11 04:33N 49°15' W 123°30'1212.2
2014-Sep-11 03:34N 49°03' W 123°29'8 7.8
2014-Sep-11 02:34N 48°58' W 123°20'6 5.9
2014-Sep-11 01:33N 49°02' W 123°26'1413.9
2014-Sep-11 00:33N 49°16' W 123°26'10 9.8
2014-Sep-10 23:33N 49°24' W 123°18'4 3.6
2014-Sep-10 22:32N 49°28' W 123°18'3 2.0
2014-Sep-10 21:05N 49°27' W 123°23'6 2.2
2014-Sep-10 18:33N 49°24' W 123°30'7 7.4
2014-Sep-10 17:33N 49°26' W 123°19'8 7.5
2014-Sep-10 16:32N 49°33' W 123°16'1010.1
2014-Sep-10 15:33N 49°23' W 123°17'7 7.0
2014-Sep-10 14:33N 49°17' W 123°23'3 2.6
2014-Sep-10 13:33N 49°18' W 123°27'8 7.9
2014-Sep-10 12:33N 49°21' W 123°38'9 8.7
2014-Sep-10 11:33N 49°23' W 123°51'8 8.2
2014-Sep-10 10:33N 49°27' W 124°02'45 2.6
2014-Sep-09 17:07N 49°52' W 124°59'7 7.1
2014-Sep-09 16:12N 49°47' W 124°53'710.1
2014-Sep-09 15:33N 49°42' W 124°46'10 9.9
2014-Sep-09 14:32N 49°35' W 124°36'6 5.8
2014-Sep-09 13:25N 49°34' W 124°26'8 9.1
2014-Sep-09 12:32N 49°39' W 124°35'26 4.4
2014-Sep-09 06:33N 49°27' W 123°59'10 8.8
2014-Sep-09 05:26N 49°21' W 123°48'7 8.1
2014-Sep-09 04:33N 49°16' W 123°39'8 7.6
2014-Sep-09 03:33N 49°13' W 123°29'9 9.0
2014-Sep-09 02:34N 49°06' W 123°21'1413.6
2014-Sep-09 01:34N 48°56' W 123°06'1010.5
2014-Sep-09 00:33N 48°46' W 123°02'1110.9
2014-Sep-08 23:34N 48°38' W 123°14'1413.6
2014-Sep-08 22:34N 48°24' W 123°11'7 6.8
2014-Sep-08 21:34N 48°20' W 123°19'7 7.0
2014-Sep-08 20:34N 48°24' W 123°27'2 0.6
2014-Sep-08 17:22N 48°26' W 123°26'0 0.0
2014-Sep-08 16:33N 48°26' W 123°26'0 0.0
2014-Sep-08 15:18N 48°26' W 123°26'0 0.0
2014-Sep-08 14:33N 48°26' W 123°26'0 0.0
2014-Sep-08 13:27N 48°26' W 123°26'0 0.0
2014-Sep-08 07:18N 48°26' W 123°26'0 0.0
2014-Sep-07 17:28N 48°26' W 123°26'0 0.0
2014-Sep-07 15:33N 48°26' W 123°26'0 0.0
2014-Sep-07 14:23N 48°26' W 123°26'0 0.0
2014-Sep-07 13:29N 48°26' W 123°26'0 0.0
2014-Sep-07 12:17N 48°26' W 123°26'0 0.0
2014-Sep-06 15:10N 48°26' W 123°26'0 0.0
2014-Sep-06 14:31N 48°26' W 123°26'0 0.0
2014-Sep-06 13:33N 48°26' W 123°26'0 0.0
2014-Sep-06 12:18N 48°26' W 123°26'0 0.0
2014-Sep-06 10:29N 48°26' W 123°26'0 0.0
2014-Sep-06 09:23N 48°26' W 123°26'0 0.0
2014-Sep-06 08:26N 48°26' W 123°26'0 0.0
2014-Sep-06 07:32N 48°26' W 123°26'0 0.0
2014-Sep-06 06:32N 48°26' W 123°26'0 0.0
2014-Sep-06 05:32N 48°26' W 123°26'0 0.0
2014-Sep-06 04:28N 48°26' W 123°26'0 0.0
2014-Sep-06 03:10N 48°26' W 123°26'0 0.0
2014-Sep-06 01:22N 48°26' W 123°26'0 0.0
2014-Sep-05 23:33N 48°26' W 123°26'0 0.0
2014-Sep-05 16:18N 48°26' W 123°26'2 2.7
2014-Sep-05 15:33N 48°24' W 123°27'1010.1
2014-Sep-05 14:33N 48°26' W 123°12'1413.8
2014-Sep-05 13:33N 48°40' W 123°16'1010.4
2014-Sep-05 12:33N 48°46' W 123°03'9 8.8
2014-Sep-05 11:33N 48°54' W 123°09'1111.4
2014-Sep-05 10:33N 49°02' W 123°22'1111.5
2014-Sep-05 09:33N 49°10' W 123°35'7 7.3
2014-Sep-05 08:33N 49°07' W 123°24'1212.1
2014-Sep-05 07:33N 48°58' W 123°11'1110.9
2014-Sep-05 06:33N 48°50' W 122°59'9 9.4
2014-Sep-05 05:33N 48°44' W 123°09'8 8.2
2014-Sep-05 04:33N 48°36' W 123°13'10 9.7
2014-Sep-05 03:33N 48°26' W 123°10'9 9.3
2014-Sep-05 02:33N 48°22' W 123°22'5 4.5
2014-Sep-05 01:32N 48°24' W 123°29'0 0.0
2014-Sep-05 00:32N 48°24' W 123°29'0 0.0
2014-Sep-04 23:32N 48°24' W 123°29'1 1.3
2014-Sep-04 22:33N 48°24' W 123°27'3 3.1
2014-Sep-04 21:32N 48°21' W 123°30'1 1.4
2014-Sep-04 20:33N 48°20' W 123°29'2 2.5
2014-Sep-04 19:32N 48°22' W 123°28'4 4.2
2014-Sep-04 18:33N 48°26' W 123°26'0 0.0
2014-Sep-04 17:32N 48°26' W 123°26'0 0.0
2014-Sep-04 16:33N 48°26' W 123°26'0 0.0
2014-Sep-04 15:33N 48°26' W 123°26'0 0.0
2014-Sep-04 14:33N 48°26' W 123°26'0 0.0
2014-Sep-04 13:33N 48°26' W 123°26'0 0.0
2014-Sep-04 12:33N 48°26' W 123°26'0 0.0
2014-Sep-04 11:33N 48°26' W 123°26'0 0.0
2014-Sep-04 10:33N 48°26' W 123°26'0 0.0
2014-Sep-04 09:33N 48°26' W 123°26'0 0.0
2014-Sep-04 08:33N 48°26' W 123°26'0 0.0
2014-Sep-04 07:33N 48°26' W 123°26'0 0.0
2014-Sep-04 06:33N 48°26' W 123°26'0 0.0
2014-Sep-04 05:33N 48°26' W 123°26'0 0.0
2014-Sep-04 04:33N 48°26' W 123°26'0 0.0
2014-Sep-04 03:33N 48°26' W 123°26'0 0.0
2014-Sep-04 02:33N 48°26' W 123°26'0 0.0
2014-Sep-04 01:33N 48°26' W 123°26'0 0.0
2014-Sep-04 00:33N 48°26' W 123°26'0 0.0
2014-Sep-03 23:33N 48°26' W 123°26'0 0.0
2014-Sep-03 22:33N 48°26' W 123°26'0 0.0
2014-Sep-03 21:33N 48°26' W 123°26'0 0.0
2014-Sep-03 20:28N 48°26' W 123°26'0 0.0
2014-Sep-03 19:33N 48°26' W 123°26'0 0.0
2014-Sep-03 18:33N 48°26' W 123°26'0 0.0
2014-Sep-03 17:33N 48°26' W 123°26'0 0.0
2014-Sep-03 16:33N 48°26' W 123°26'0 0.0
2014-Sep-03 15:30N 48°26' W 123°26'0 0.0
2014-Sep-03 14:28N 48°26' W 123°26'0 0.0
2014-Sep-03 12:33N 48°26' W 123°26'0 0.0
2014-Sep-03 11:33N 48°26' W 123°26'0 0.0
2014-Sep-03 10:24N 48°26' W 123°26'  
Track history (hours):
 
Tides and Currents Weather Stations Pressure Air Temp Water Temp Dewpoint Dewpoint Depression Visibility Wind Speed Wind Dir Waves Ship Positions

Moose 62

Last reported at 2014-Sep-13 08:33 UTC. Time now 2014-Sep-15 09:29 UTC.
Position N 49°17' W 123°06'.

; draft 2.6 m.

Type: Military. MMSI: 316013412.

Date/timePositionNaut miles runAvg speedWind from/ knotsBaromVisibWave heightAir tempDewpointWater temp
2014-Sep-13 08:33N 49°17' W 123°06'0 0.0
2014-Sep-13 07:33N 49°17' W 123°06'0 0.0
2014-Sep-13 06:33N 49°17' W 123°06'0 0.0
2014-Sep-13 05:33N 49°17' W 123°06'0 0.0
2014-Sep-13 04:33N 49°17' W 123°06'0 0.0
2014-Sep-13 03:33N 49°17' W 123°06'0 0.0
2014-Sep-13 02:33N 49°17' W 123°06'0 0.0
2014-Sep-13 01:33N 49°17' W 123°06'0 0.0
2014-Sep-13 00:33N 49°17' W 123°06'0 0.0
2014-Sep-12 23:33N 49°17' W 123°06'0 0.0
2014-Sep-12 22:33N 49°17' W 123°06'0 0.0
2014-Sep-12 21:33N 49°17' W 123°06'9 9.2
2014-Sep-12 20:33N 49°19' W 123°20'1211.9
2014-Sep-12 19:33N 49°21' W 123°38'1414.0
2014-Sep-12 18:33N 49°26' W 123°58'1515.2
2014-Sep-12 17:33N 49°38' W 124°12'10 9.8
2014-Sep-12 16:34N 49°47' W 124°06'0 0.4
2014-Sep-12 15:33N 49°47' W 124°07'1010.4
2014-Sep-12 14:33N 49°44' W 124°22'1010.0
2014-Sep-12 13:32N 49°50' W 124°35'9 8.9
2014-Sep-12 12:33N 49°54' W 124°47'6 6.1
2014-Sep-12 11:33N 49°48' W 124°48'9 9.5
2014-Sep-12 10:33N 49°41' W 124°39'1211.6
2014-Sep-12 09:33N 49°31' W 124°30'1010.2
2014-Sep-12 08:33N 49°25' W 124°16'1111.3
2014-Sep-12 07:33N 49°22' W 123°60'1110.6
2014-Sep-12 06:34N 49°20' W 123°44'10 9.9
2014-Sep-12 05:33N 49°19' W 123°28'1010.2
2014-Sep-12 04:34N 49°19' W 123°13'4 4.1
2014-Sep-12 03:34N 49°18' W 123°07'0 0.0
2014-Sep-12 02:34N 49°18' W 123°07'0 0.0
2014-Sep-12 01:34N 49°18' W 123°07'7 7.0
2014-Sep-12 00:34N 49°18' W 123°18'6 5.8
2014-Sep-11 23:33N 49°15' W 123°24'4 3.7
2014-Sep-11 22:33N 49°18' W 123°24'1 1.3
2014-Sep-11 21:34N 49°19' W 123°24'7 6.6
2014-Sep-11 20:33N 49°25' W 123°18'6 5.7
2014-Sep-11 19:33N 49°23' W 123°26'6 5.9
2014-Sep-11 18:33N 49°26' W 123°19'8 7.9
2014-Sep-11 17:33N 49°34' W 123°17'4 3.6
2014-Sep-11 16:34N 49°30' W 123°17'8 8.3
2014-Sep-11 15:33N 49°22' W 123°18'38 4.5
2014-Sep-11 07:08N 49°25' W 124°16'711.5
2014-Sep-11 06:33N 49°23' W 124°06'1312.6
2014-Sep-11 05:33N 49°20' W 123°47'1312.7
2014-Sep-11 04:33N 49°15' W 123°30'1212.2
2014-Sep-11 03:34N 49°03' W 123°29'8 7.8
2014-Sep-11 02:34N 48°58' W 123°20'6 5.9
2014-Sep-11 01:33N 49°02' W 123°26'1413.9
2014-Sep-11 00:33N 49°16' W 123°26'10 9.8
2014-Sep-10 23:33N 49°24' W 123°18'4 3.6
2014-Sep-10 22:32N 49°28' W 123°18'3 2.0
2014-Sep-10 21:05N 49°27' W 123°23'6 2.2
2014-Sep-10 18:33N 49°24' W 123°30'7 7.4
2014-Sep-10 17:33N 49°26' W 123°19'8 7.5
2014-Sep-10 16:32N 49°33' W 123°16'1010.1
2014-Sep-10 15:33N 49°23' W 123°17'7 7.0
2014-Sep-10 14:33N 49°17' W 123°23'3 2.6
2014-Sep-10 13:33N 49°18' W 123°27'8 7.9
2014-Sep-10 12:33N 49°21' W 123°38'9 8.7
2014-Sep-10 11:33N 49°23' W 123°51'8 8.2
2014-Sep-10 10:33N 49°27' W 124°02'45 2.6
2014-Sep-09 17:07N 49°52' W 124°59'7 7.1
2014-Sep-09 16:12N 49°47' W 124°53'710.1
2014-Sep-09 15:33N 49°42' W 124°46'10 9.9
2014-Sep-09 14:32N 49°35' W 124°36'6 5.8
2014-Sep-09 13:25N 49°34' W 124°26'8 9.1
2014-Sep-09 12:32N 49°39' W 124°35'26 4.4
2014-Sep-09 06:33N 49°27' W 123°59'10 8.8
2014-Sep-09 05:26N 49°21' W 123°48'7 8.1
2014-Sep-09 04:33N 49°16' W 123°39'8 7.6
2014-Sep-09 03:33N 49°13' W 123°29'9 9.0
2014-Sep-09 02:34N 49°06' W 123°21'1413.6
2014-Sep-09 01:34N 48°56' W 123°06'1010.5
2014-Sep-09 00:33N 48°46' W 123°02'1110.9
2014-Sep-08 23:34N 48°38' W 123°14'1413.6
2014-Sep-08 22:34N 48°24' W 123°11'7 6.8
2014-Sep-08 21:34N 48°20' W 123°19'7 7.0
2014-Sep-08 20:34N 48°24' W 123°27'2 0.6
2014-Sep-08 17:22N 48°26' W 123°26'0 0.0
2014-Sep-08 16:33N 48°26' W 123°26'0 0.0
2014-Sep-08 15:18N 48°26' W 123°26'0 0.0
2014-Sep-08 14:33N 48°26' W 123°26'0 0.0
2014-Sep-08 13:27N 48°26' W 123°26'0 0.0
2014-Sep-08 07:18N 48°26' W 123°26'0 0.0
2014-Sep-07 17:28N 48°26' W 123°26'0 0.0
2014-Sep-07 15:33N 48°26' W 123°26'0 0.0
2014-Sep-07 14:23N 48°26' W 123°26'0 0.0
2014-Sep-07 13:29N 48°26' W 123°26'0 0.0
2014-Sep-07 12:17N 48°26' W 123°26'0 0.0
2014-Sep-06 15:10N 48°26' W 123°26'0 0.0
2014-Sep-06 14:31N 48°26' W 123°26'0 0.0
2014-Sep-06 13:33N 48°26' W 123°26'0 0.0
2014-Sep-06 12:18N 48°26' W 123°26'0 0.0
2014-Sep-06 10:29N 48°26' W 123°26'0 0.0
2014-Sep-06 09:23N 48°26' W 123°26'0 0.0
2014-Sep-06 08:26N 48°26' W 123°26'0 0.0
2014-Sep-06 07:32N 48°26' W 123°26'0 0.0
2014-Sep-06 06:32N 48°26' W 123°26'0 0.0
2014-Sep-06 05:32N 48°26' W 123°26'0 0.0
2014-Sep-06 04:28N 48°26' W 123°26'0 0.0
2014-Sep-06 03:10N 48°26' W 123°26'0 0.0
2014-Sep-06 01:22N 48°26' W 123°26'0 0.0
2014-Sep-05 23:33N 48°26' W 123°26'0 0.0
2014-Sep-05 16:18N 48°26' W 123°26'2 2.7
2014-Sep-05 15:33N 48°24' W 123°27'1010.1
2014-Sep-05 14:33N 48°26' W 123°12'1413.8
2014-Sep-05 13:33N 48°40' W 123°16'1010.4
2014-Sep-05 12:33N 48°46' W 123°03'9 8.8
2014-Sep-05 11:33N 48°54' W 123°09'1111.4
2014-Sep-05 10:33N 49°02' W 123°22'1111.5
2014-Sep-05 09:33N 49°10' W 123°35'7 7.3
2014-Sep-05 08:33N 49°07' W 123°24'1212.1
2014-Sep-05 07:33N 48°58' W 123°11'1110.9
2014-Sep-05 06:33N 48°50' W 122°59'9 9.4
2014-Sep-05 05:33N 48°44' W 123°09'8 8.2
2014-Sep-05 04:33N 48°36' W 123°13'10 9.7
2014-Sep-05 03:33N 48°26' W 123°10'9 9.3
2014-Sep-05 02:33N 48°22' W 123°22'5 4.5
2014-Sep-05 01:32N 48°24' W 123°29'0 0.0
2014-Sep-05 00:32N 48°24' W 123°29'0 0.0
2014-Sep-04 23:32N 48°24' W 123°29'1 1.3
2014-Sep-04 22:33N 48°24' W 123°27'3 3.1
2014-Sep-04 21:32N 48°21' W 123°30'1 1.4
2014-Sep-04 20:33N 48°20' W 123°29'2 2.5
2014-Sep-04 19:32N 48°22' W 123°28'4 4.2
2014-Sep-04 18:33N 48°26' W 123°26'0 0.0
2014-Sep-04 17:32N 48°26' W 123°26'0 0.0
2014-Sep-04 16:33N 48°26' W 123°26'0 0.0
2014-Sep-04 15:33N 48°26' W 123°26'0 0.0
2014-Sep-04 14:33N 48°26' W 123°26'0 0.0
2014-Sep-04 13:33N 48°26' W 123°26'0 0.0
2014-Sep-04 12:33N 48°26' W 123°26'0 0.0
2014-Sep-04 11:33N 48°26' W 123°26'0 0.0
2014-Sep-04 10:33N 48°26' W 123°26'0 0.0
2014-Sep-04 09:33N 48°26' W 123°26'0 0.0
2014-Sep-04 08:33N 48°26' W 123°26'0 0.0
2014-Sep-04 07:33N 48°26' W 123°26'0 0.0
2014-Sep-04 06:33N 48°26' W 123°26'0 0.0
2014-Sep-04 05:33N 48°26' W 123°26'0 0.0
2014-Sep-04 04:33N 48°26' W 123°26'0 0.0
2014-Sep-04 03:33N 48°26' W 123°26'0 0.0
2014-Sep-04 02:33N 48°26' W 123°26'0 0.0
2014-Sep-04 01:33N 48°26' W 123°26'0 0.0
2014-Sep-04 00:33N 48°26' W 123°26'0 0.0
2014-Sep-03 23:33N 48°26' W 123°26'0 0.0
2014-Sep-03 22:33N 48°26' W 123°26'0 0.0
2014-Sep-03 21:33N 48°26' W 123°26'0 0.0
2014-Sep-03 20:28N 48°26' W 123°26'0 0.0
2014-Sep-03 19:33N 48°26' W 123°26'0 0.0
2014-Sep-03 18:33N 48°26' W 123°26'0 0.0
2014-Sep-03 17:33N 48°26' W 123°26'0 0.0
2014-Sep-03 16:33N 48°26' W 123°26'0 0.0
2014-Sep-03 15:30N 48°26' W 123°26'0 0.0
2014-Sep-03 14:28N 48°26' W 123°26'0 0.0
2014-Sep-03 12:33N 48°26' W 123°26'0 0.0
2014-Sep-03 11:33N 48°26' W 123°26'0 0.0
2014-Sep-03 10:24N 48°26' W 123°26'  

Dump ship's entire track history